Time;durP1;ratioP1;P1;durP2;ratioP2;P2;SDS_P1;SDS_P2;PMS_P1;PMS_P2;Temp;Humidity;BMP_temperature;BMP_pressure;BME280_temperature;BME280_humidity;BME280_pressure;Samples;Min_cycle;Max_cycle;Signal;HPM_P1;HPM_P2
2022/09/06 00:00:35;;;;;;;;;;;;;;;;;;2209957;67;1125;-61
2022/09/06 00:03:08;;;;;;;;;;;;;;;;;;2209901;59;1920;-61
2022/09/06 00:05:43;;;;;;;;;;;;;;;;;;2210390;67;1256;-61
2022/09/06 00:08:19;;;;;;;;;;;;;;;;;;2210331;67;1252;-63
2022/09/06 00:10:58;;;;;;;;;;;;;;;;;;2210193;67;1196;-62
2022/09/06 00:13:31;;;;;;;;;;;;;;;;;;2210363;67;1076;-62
2022/09/06 00:16:08;;;;;;;;;;;;;;;;;;2209687;67;1239;-63
2022/09/06 00:18:42;;;;;;;;;;;;;;;;;;2210446;67;1145;-64
2022/09/06 00:21:16;;;;;;;;;;;;;;;;;;2210224;67;1139;-64
2022/09/06 00:23:52;;;;;;;;;;;;;;;;;;2209703;67;1992;-64
2022/09/06 00:26:25;;;;;;;;;;;;;;;;;;2209951;59;1589;-64
2022/09/06 00:28:58;;;;;;;;;;;;;;;;;;2210038;59;1249;-63
2022/09/06 00:31:34;;;;;;;;;;;;;;;;;;2209978;67;1142;-65
2022/09/06 00:34:07;;;;;;;;;;;;;;;;;;2211026;67;1296;-62
2022/09/06 00:36:40;;;;;;;;;;;;;;;;;;2211033;67;1350;-62
2022/09/06 00:39:16;;;;;;;;;;;;;;;;;;2211271;67;1060;-63
2022/09/06 00:41:49;;;;;;;;;;;;;;;;;;2210847;67;1085;-63
2022/09/06 00:44:22;;;;;;;;;;;;;;;;;;2211144;67;1992;-64
2022/09/06 00:46:56;;;;;;;;;;;;;;;;;;2210994;59;1296;-63
2022/09/06 00:49:31;;;;;;;;;;;;;;;;;;2210905;67;1111;-60
2022/09/06 00:52:06;;;;;;;;;;;;;;;;;;2208594;67;1920;-61
2022/09/06 00:54:42;;;;;;;;;;;;;;;;;;2210553;67;1067;-61
2022/09/06 00:57:16;;;;;;;;;;;;;;;;;;2211247;67;1191;-60
2022/09/06 00:59:49;;;;;;;;;;;;;;;;;;2210385;67;1094;-62
2022/09/06 01:02:23;;;;;;;;;;;;;;;;;;2210756;59;1941;-62
2022/09/06 01:04:56;;;;;;;;;;;;;;;;;;2210921;59;1753;-63
2022/09/06 01:07:36;;;;;;;;;;;;;;;;;;2210374;67;1211;-64
2022/09/06 01:10:20;;;;;;;;;;;;;;;;;;2210929;67;1201;-61
2022/09/06 01:13:00;;;;;;;;;;;;;;;;;;2210912;59;1284;-64
2022/09/06 01:15:37;;;;;;;;;;;;;;;;;;2210838;67;1239;-62
2022/09/06 01:18:18;;;;;;;;;;;;;;;;;;2210902;67;1118;-63
2022/09/06 01:21:06;;;;;;;;;;;;;;;;;;2210712;59;1093;-63
2022/09/06 01:23:54;;;;;;;;;;;;;;;;;;2210145;67;1971;-61
2022/09/06 01:26:51;;;;;;;;;;;;;;;;;;2210434;59;1648;-61
2022/09/06 01:29:31;;;;;;;;;;;;;;;;;;2192838;59;1683;-62
2022/09/06 01:32:07;;;;;;;;;;;;;;;;;;2210606;67;1302;-64
2022/09/06 01:34:43;;;;;;;;;;;;;;;;;;2210807;67;1129;-63
2022/09/06 01:37:20;;;;;;;;;;;;;;;;;;2210796;59;1956;-64
2022/09/06 01:50:46;;;;;;;;;;;;;;;;;;2306802;53;2153;-55
2022/09/06 01:53:28;;;;;;;;;;;;;;;;;;2211628;59;1513;-54
2022/09/06 01:56:07;;;;;;;;;;;;;;;;;;2211020;67;1222;-54
2022/09/06 01:58:46;;;;;;;;;;;;;;;;;;2210894;67;1265;-53
2022/09/06 02:01:23;;;;;;;;;;;;;;;;;;2213889;67;1226;-54
2022/09/06 02:04:00;;;;;;;;;;;;;;;;;;2214877;59;1922;-61
2022/09/06 02:06:40;;;;;;;;;;;;;;;;;;2214781;67;1096;-58
2022/09/06 02:09:14;;;;;;;;;;;;;;;;;;2214204;58;1434;-57
2022/09/06 02:11:51;;;;;;;;;;;;;;;;;;2214369;59;1314;-55
2022/09/06 02:14:29;;;;;;;;;;;;;;;;;;2214434;67;1261;-54
2022/09/06 02:17:03;;;;;;;;;;;;;;;;;;2214799;67;1242;-54
2022/09/06 02:19:38;;;;;;;;;;;;;;;;;;2214580;67;1223;-54
2022/09/06 02:22:16;;;;;;;;;;;;;;;;;;2214370;67;1052;-55
2022/09/06 02:24:51;;;;;;;;;;;;;;;;;;2214710;59;1990;-54
2022/09/06 02:27:24;;;;;;;;;;;;;;;;;;2211118;59;1512;-54
2022/09/06 02:29:57;;;;;;;;;;;;;;;;;;2214703;66;1266;-54
2022/09/06 02:32:31;;;;;;;;;;;;;;;;;;2214512;67;1180;-55
2022/09/06 02:35:09;;;;;;;;;;;;;;;;;;2215002;67;1104;-54
2022/09/06 02:37:45;;;;;;;;;;;;;;;;;;2214250;67;1072;-53
2022/09/06 02:40:19;;;;;;;;;;;;;;;;;;2214366;67;1279;-54
2022/09/06 02:42:52;;;;;;;;;;;;;;;;;;2214688;67;1925;-54
2022/09/06 02:45:26;;;;;;;;;;;;;;;;;;2214160;67;1157;-54
2022/09/06 02:47:59;;;;;;;;;;;;;;;;;;2214375;59;1272;-54
2022/09/06 02:50:32;;;;;;;;;;;;;;;;;;2214597;59;1162;-55
2022/09/06 02:53:09;;;;;;;;;;;;;;;;;;2213786;67;1210;-54
2022/09/06 02:55:43;;;;;;;;;;;;;;;;;;2214475;67;1092;-54
2022/09/06 02:58:16;;;;;;;;;;;;;;;;;;2214434;67;1152;-54
2022/09/06 03:00:51;;;;;;;;;;;;;;;;;;2214302;67;1226;-53
2022/09/06 03:03:26;;;;;;;;;;;;;;;;;;2213988;59;2412;-55
2022/09/06 03:05:59;;;;;;;;;;;;;;;;;;2214425;59;1339;-53
2022/09/06 03:08:35;;;;;;;;;;;;;;;;;;2214095;59;1289;-54
2022/09/06 03:11:08;;;;;;;;;;;;;;;;;;2213879;67;1234;-53
2022/09/06 03:13:41;;;;;;;;;;;;;;;;;;2214350;59;1580;-54
2022/09/06 03:16:14;;;;;;;;;;;;;;;;;;2214523;67;1196;-58
2022/09/06 03:18:48;;;;;;;;;;;;;;;;;;2214212;67;1101;-57
2022/09/06 03:21:21;;;;;;;;;;;;;;;;;;2214246;59;1273;-53
2022/09/06 03:23:58;;;;;;;;;;;;;;;;;;2214493;67;1936;-53
2022/09/06 03:26:31;;;;;;;;;;;;;;;;;;2213319;59;1442;-53
2022/09/06 03:29:04;;;;;;;;;;;;;;;;;;2214248;59;1231;-55
2022/09/06 03:31:38;;;;;;;;;;;;;;;;;;2213835;67;1085;-53
2022/09/06 03:34:11;;;;;;;;;;;;;;;;;;2214143;67;1258;-53
2022/09/06 03:36:44;;;;;;;;;;;;;;;;;;2211500;67;2404;-52
2022/09/06 03:39:20;;;;;;;;;;;;;;;;;;2214144;59;1619;-53
2022/09/06 03:41:53;;;;;;;;;;;;;;;;;;2213979;67;1104;-53
2022/09/06 03:44:26;;;;;;;;;;;;;;;;;;2214182;67;1940;-54
2022/09/06 03:46:59;;;;;;;;;;;;;;;;;;2213652;67;1206;-53
2022/09/06 03:49:32;;;;;;;;;;;;;;;;;;2213854;67;1281;-53
2022/09/06 03:52:05;;;;;;;;;;;;;;;;;;2213970;67;1134;-53
2022/09/06 03:54:42;;;;;;;;;;;;;;;;;;2213978;67;1214;-53
2022/09/06 03:57:15;;;;;;;;;;;;;;;;;;2214034;67;1109;-53
2022/09/06 03:59:48;;;;;;;;;;;;;;;;;;2213820;67;1328;-53
2022/09/06 04:02:21;;;;;;;;;;;;;;;;;;2213939;59;1684;-53
2022/09/06 04:04:54;;;;;;;;;;;;;;;;;;2213278;59;1968;-53
2022/09/06 04:07:28;;;;;;;;;;;;;;;;;;2213906;67;1222;-54
2022/09/06 04:10:03;;;;;;;;;;;;;;;;;;2213885;67;1245;-53
2022/09/06 04:12:37;;;;;;;;;;;;;;;;;;2213797;59;1329;-53
2022/09/06 04:15:10;;;;;;;;;;;;;;;;;;2214257;59;2417;-53
2022/09/06 04:17:45;;;;;;;;;;;;;;;;;;2213934;67;1089;-53
2022/09/06 04:20:18;;;;;;;;;;;;;;;;;;2213933;67;1262;-53
2022/09/06 04:22:52;;;;;;;;;;;;;;;;;;2212730;59;2485;-53
2022/09/06 04:25:28;;;;;;;;;;;;;;;;;;2214055;59;1968;-53
2022/09/06 04:28:01;;;;;;;;;;;;;;;;;;2214003;59;1489;-56
2022/09/06 04:30:34;;;;;;;;;;;;;;;;;;2213960;59;1237;-54
2022/09/06 04:33:07;;;;;;;;;;;;;;;;;;2214362;67;1231;-54
2022/09/06 04:35:40;;;;;;;;;;;;;;;;;;2214748;59;1289;-53
2022/09/06 04:38:13;;;;;;;;;;;;;;;;;;2214678;67;1377;-53
2022/09/06 04:40:49;;;;;;;;;;;;;;;;;;2213807;67;1214;-53
2022/09/06 04:43:23;;;;;;;;;;;;;;;;;;2214506;67;1352;-55
2022/09/06 04:45:56;;;;;;;;;;;;;;;;;;2214456;59;1937;-53
2022/09/06 04:48:29;;;;;;;;;;;;;;;;;;2213897;67;1266;-53
2022/09/06 04:51:02;;;;;;;;;;;;;;;;;;2214388;59;1280;-53
2022/09/06 04:53:35;;;;;;;;;;;;;;;;;;2213944;67;1091;-54
2022/09/06 04:56:14;;;;;;;;;;;;;;;;;;2214196;67;1198;-53
2022/09/06 04:58:48;;;;;;;;;;;;;;;;;;2213940;67;1120;-54
2022/09/06 05:01:21;;;;;;;;;;;;;;;;;;2213583;59;1743;-53
2022/09/06 05:03:55;;;;;;;;;;;;;;;;;;2214269;59;1979;-59
2022/09/06 05:06:28;;;;;;;;;;;;;;;;;;2214343;67;1214;-53
2022/09/06 05:09:01;;;;;;;;;;;;;;;;;;2213851;67;1192;-54
2022/09/06 05:11:37;;;;;;;;;;;;;;;;;;2214288;67;1105;-55
2022/09/06 05:14:10;;;;;;;;;;;;;;;;;;2214016;67;1017;-54
2022/09/06 05:16:44;;;;;;;;;;;;;;;;;;2213942;67;1037;-53
2022/09/06 05:19:17;;;;;;;;;;;;;;;;;;2214098;66;1277;-53
2022/09/06 05:21:52;;;;;;;;;;;;;;;;;;2214989;67;1242;-53
2022/09/06 05:24:25;;;;;;;;;;;;;;;;;;2214424;67;1980;-53
2022/09/06 05:27:03;;;;;;;;;;;;;;;;;;2214593;59;1636;-54
2022/09/06 05:29:36;;;;;;;;;;;;;;;;;;2214658;67;1294;-60
2022/09/06 05:32:09;;;;;;;;;;;;;;;;;;2215030;59;1210;-56
2022/09/06 05:34:42;;;;;;;;;;;;;;;;;;2214719;67;1084;-54
2022/09/06 05:37:15;;;;;;;;;;;;;;;;;;2215065;59;1397;-54
2022/09/06 05:39:49;;;;;;;;;;;;;;;;;;2214001;67;1277;-54
2022/09/06 05:42:24;;;;;;;;;;;;;;;;;;2214708;67;1201;-55
2022/09/06 05:44:58;;;;;;;;;;;;;;;;;;2214575;67;1917;-60
2022/09/06 05:47:34;;;;;;;;;;;;;;;;;;2214231;59;1290;-54
2022/09/06 05:50:07;;;;;;;;;;;;;;;;;;2214556;59;1206;-53
2022/09/06 05:52:41;;;;;;;;;;;;;;;;;;2214189;67;1084;-54
2022/09/06 05:55:14;;;;;;;;;;;;;;;;;;2214506;67;1307;-54
2022/09/06 05:57:50;;;;;;;;;;;;;;;;;;2214223;67;1148;-53
2022/09/06 06:00:24;;;;;;;;;;;;;;;;;;2214245;67;1252;-55
2022/09/06 06:02:57;;;;;;;;;;;;;;;;;;2214315;59;1724;-54
2022/09/06 06:05:30;;;;;;;;;;;;;;;;;;2214370;67;1937;-54
2022/09/06 06:08:03;;;;;;;;;;;;;;;;;;2214591;67;1261;-53
2022/09/06 06:10:38;;;;;;;;;;;;;;;;;;2214484;59;1257;-53
2022/09/06 06:13:14;;;;;;;;;;;;;;;;;;2214726;67;1162;-53
2022/09/06 06:15:47;;;;;;;;;;;;;;;;;;2214251;63;1141;-54
2022/09/06 06:18:20;;;;;;;;;;;;;;;;;;2214687;67;1107;-54
2022/09/06 06:20:53;;;;;;;;;;;;;;;;;;2214491;67;1243;-54
2022/09/06 06:23:26;;;;;;;;;;;;;;;;;;2214664;67;1204;-54
2022/09/06 06:25:59;;;;;;;;;;;;;;;;;;2214717;67;1957;-54
2022/09/06 06:28:36;;;;;;;;;;;;;;;;;;2214342;59;1663;-54
2022/09/06 06:31:10;;;;;;;;;;;;;;;;;;2214024;58;1220;-54
2022/09/06 06:33:44;;;;;;;;;;;;;;;;;;2214771;67;1061;-55
2022/09/06 06:36:21;;;;;;;;;;;;;;;;;;2214949;67;1369;-54
2022/09/06 06:38:55;;;;;;;;;;;;;;;;;;2214179;67;1171;-54
2022/09/06 06:41:29;;;;;;;;;;;;;;;;;;2214268;67;1219;-54
2022/09/06 06:44:06;;;;;;;;;;;;;;;;;;2214839;67;1234;-55
2022/09/06 06:46:40;;;;;;;;;;;;;;;;;;2213890;59;1948;-55
2022/09/06 06:49:13;;;;;;;;;;;;;;;;;;2214662;67;1685;-54
2022/09/06 06:51:46;;;;;;;;;;;;;;;;;;2214670;67;1175;-54
2022/09/06 06:54:19;;;;;;;;;;;;;;;;;;2214229;67;1352;-54
2022/09/06 06:56:52;;;;;;;;;;;;;;;;;;2214855;58;1185;-55
2022/09/06 06:59:28;;;;;;;;;;;;;;;;;;2214287;67;1258;-55
2022/09/06 07:02:02;;;;;;;;;;;;;;;;;;2214152;59;1685;-55
2022/09/06 07:04:35;;;;;;;;;;;;;;;;;;2213997;67;1940;-55
2022/09/06 07:07:08;;;;;;;;;;;;;;;;;;2214090;67;1148;-54
2022/09/06 07:09:41;;;;;;;;;;;;;;;;;;2213125;66;1284;-54
2022/09/06 07:12:14;;;;;;;;;;;;;;;;;;2214331;59;1194;-54
2022/09/06 07:14:50;;;;;;;;;;;;;;;;;;2214244;67;1186;-54
2022/09/06 07:17:23;;;;;;;;;;;;;;;;;;2213810;67;1306;-55
2022/09/06 07:19:56;;;;;;;;;;;;;;;;;;2214154;67;1137;-55
2022/09/06 07:22:29;;;;;;;;;;;;;;;;;;2214419;67;1263;-54
2022/09/06 07:25:02;;;;;;;;;;;;;;;;;;2214192;59;1964;-55
2022/09/06 07:27:36;;;;;;;;;;;;;;;;;;2214101;59;1340;-57
2022/09/06 07:30:13;;;;;;;;;;;;;;;;;;2214513;67;1222;-54
2022/09/06 07:32:46;;;;;;;;;;;;;;;;;;2214212;67;1058;-55
2022/09/06 07:35:19;;;;;;;;;;;;;;;;;;2214809;67;1200;-55
2022/09/06 07:37:56;;;;;;;;;;;;;;;;;;2214648;59;1290;-55
2022/09/06 07:40:31;;;;;;;;;;;;;;;;;;2213907;67;1339;-58
2022/09/06 07:43:04;;;;;;;;;;;;;;;;;;2215339;67;1135;-56
2022/09/06 07:45:40;;;;;;;;;;;;;;;;;;2214598;67;2002;-55
2022/09/06 07:48:14;;;;;;;;;;;;;;;;;;2215006;67;1109;-55
2022/09/06 08:50:30;;;;;;;;;;;;;;;;;;2222419;53;1597;-73
2022/09/06 08:53:06;;;;;;;;;;;;;;;;;;2209012;59;1361;-72
2022/09/06 08:55:42;;;;;;;;;;;;;;;;;;2210901;59;1131;-72
2022/09/06 08:58:33;;;;;;;;;;;;;;;;;;2211228;59;1233;-73
2022/09/06 09:03:44;;;;;;;;;;;;;;;;;;2209690;59;1738;-55
2022/09/06 09:06:20;;;;;;;;;;;;;;;;;;2210954;59;1944;-56
2022/09/06 09:09:00;;;;;;;;;;;;;;;;;;2210795;67;1076;-60
2022/09/06 09:11:35;;;;;;;;;;;;;;;;;;2208273;59;1348;-57
2022/09/06 09:14:13;;;;;;;;;;;;;;;;;;2207174;67;1126;-55
2022/09/06 09:16:47;;;;;;;;;;;;;;;;;;2207019;67;1101;-56
2022/09/06 09:19:20;;;;;;;;;;;;;;;;;;2207617;67;1271;-56
2022/09/06 09:21:56;;;;;;;;;;;;;;;;;;2206945;67;1286;-55
2022/09/06 09:24:30;;;;;;;;;;;;;;;;;;2207489;59;1238;-58
2022/09/06 09:27:07;;;;;;;;;;;;;;;;;;2206446;59;1936;-58
2022/09/06 09:29:58;;;;;;;;;;;;;;;;;;2207512;67;1773;-54
2022/09/06 09:32:31;;;;;;;;;;;;;;;;;;2206984;59;1266;-55
2022/09/06 09:35:18;;;;;;;;;;;;;;;;;;2207779;67;1138;-57
2022/09/06 09:38:01;;;;;;;;;;;;;;;;;;2206888;67;1141;-57
2022/09/06 09:40:37;;;;;;;;;;;;;;;;;;2206936;67;1317;-55
2022/09/06 09:43:13;;;;;;;;;;;;;;;;;;2207602;67;1005;-56
2022/09/06 09:45:46;;;;;;;;;;;;;;;;;;2206793;59;1919;-55
2022/09/06 09:48:21;;;;;;;;;;;;;;;;;;2207273;67;1314;-55
2022/09/06 09:50:55;;;;;;;;;;;;;;;;;;2207242;67;1225;-55
2022/09/06 09:53:31;;;;;;;;;;;;;;;;;;2207046;67;1246;-57
2022/09/06 09:56:04;;;;;;;;;;;;;;;;;;2207272;67;1209;-57
2022/09/06 09:58:38;;;;;;;;;;;;;;;;;;2207512;67;1092;-58
2022/09/06 10:01:19;;;;;;;;;;;;;;;;;;2207327;67;1247;-56
2022/09/06 10:03:53;;;;;;;;;;;;;;;;;;2203993;59;1548;-54
2022/09/06 10:06:27;;;;;;;;;;;;;;;;;;2207510;67;1995;-55
2022/09/06 10:09:14;;;;;;;;;;;;;;;;;;2206768;67;1231;-55
2022/09/06 10:11:51;;;;;;;;;;;;;;;;;;2207111;59;1279;-56
2022/09/06 10:14:29;;;;;;;;;;;;;;;;;;2207264;67;1234;-55
2022/09/06 10:17:02;;;;;;;;;;;;;;;;;;2206810;67;1258;-55
2022/09/06 10:19:40;;;;;;;;;;;;;;;;;;2207289;67;1111;-54
2022/09/06 10:22:21;;;;;;;;;;;;;;;;;;2207385;67;1263;-56
2022/09/06 10:25:13;;;;;;;;;;;;;;;;;;2207462;67;1101;-59
2022/09/06 10:27:54;;;;;;;;;;;;;;;;;;2206869;59;1944;-56
2022/09/06 10:30:30;;;;;;;;;;;;;;;;;;2207112;59;1261;-54
2022/09/06 10:33:07;;;;;;;;;;;;;;;;;;2207271;67;1223;-55
2022/09/06 10:35:40;;;;;;;;;;;;;;;;;;2207355;67;1176;-55
2022/09/06 10:38:21;;;;;;;;;;;;;;;;;;2207332;59;1208;-54
2022/09/06 10:40:59;;;;;;;;;;;;;;;;;;2207431;67;1254;-55
2022/09/06 10:43:43;;;;;;;;;;;;;;;;;;2207064;67;1104;-56
2022/09/06 10:46:18;;;;;;;;;;;;;;;;;;2207023;67;1988;-59
2022/09/06 10:48:53;;;;;;;;;;;;;;;;;;2207012;67;1085;-55
2022/09/06 10:51:33;;;;;;;;;;;;;;;;;;2207101;67;1353;-59
2022/09/06 10:54:09;;;;;;;;;;;;;;;;;;2207174;67;1133;-56
2022/09/06 10:56:45;;;;;;;;;;;;;;;;;;2206850;67;1107;-57
2022/09/06 10:59:24;;;;;;;;;;;;;;;;;;2207229;67;1077;-57
2022/09/06 11:02:04;;;;;;;;;;;;;;;;;;2206761;59;1767;-55
2022/09/06 11:04:38;;;;;;;;;;;;;;;;;;2206940;59;1281;-56
2022/09/06 11:07:14;;;;;;;;;;;;;;;;;;2207177;67;1987;-55
2022/09/06 11:09:49;;;;;;;;;;;;;;;;;;2206794;67;1257;-58
2022/09/06 11:12:26;;;;;;;;;;;;;;;;;;2206715;59;1327;-54
2022/09/06 11:15:04;;;;;;;;;;;;;;;;;;2206902;60;1090;-54
2022/09/06 11:17:41;;;;;;;;;;;;;;;;;;2206833;67;1295;-54
2022/09/06 11:20:17;;;;;;;;;;;;;;;;;;2207056;67;1272;-56
2022/09/06 11:23:07;;;;;;;;;;;;;;;;;;2206990;67;1097;-54
2022/09/06 11:25:50;;;;;;;;;;;;;;;;;;2205579;67;1992;-54
2022/09/06 11:28:27;;;;;;;;;;;;;;;;;;2206932;59;1512;-60
2022/09/06 11:31:04;;;;;;;;;;;;;;;;;;2207175;59;1259;-56
2022/09/06 11:33:38;;;;;;;;;;;;;;;;;;2206784;67;1066;-55
2022/09/06 11:36:19;;;;;;;;;;;;;;;;;;2207528;59;1061;-56
2022/09/06 11:38:57;;;;;;;;;;;;;;;;;;2206772;67;1093;-57
2022/09/06 11:41:32;;;;;;;;;;;;;;;;;;2207747;67;1287;-55
2022/09/06 11:44:05;;;;;;;;;;;;;;;;;;2206925;67;1152;-58
2022/09/06 11:47:06;;;;;;;;;;;;;;;;;;2206600;59;1980;-59
2022/09/06 11:49:42;;;;;;;;;;;;;;;;;;2204687;67;2984;-56
2022/09/06 11:52:34;;;;;;;;;;;;;;;;;;2207669;67;1230;-59
2022/09/06 11:55:10;;;;;;;;;;;;;;;;;;2207417;67;1187;-58
2022/09/06 11:57:44;;;;;;;;;;;;;;;;;;2207126;59;1235;-56
2022/09/06 12:00:22;;;;;;;;;;;;;;;;;;2206765;67;1248;-59
2022/09/06 12:02:55;;;;;;;;;;;;;;;;;;2206699;59;1691;-57
2022/09/06 12:05:32;;;;;;;;;;;;;;;;;;2206667;67;1317;-59
2022/09/06 12:08:24;;;;;;;;;;;;;;;;;;2206126;67;1935;-58
2022/09/06 12:10:59;;;;;;;;;;;;;;;;;;2206067;67;1307;-55
2022/09/06 12:13:36;;;;;;;;;;;;;;;;;;2206572;67;1234;-55
2022/09/06 12:16:12;;;;;;;;;;;;;;;;;;2206452;60;1100;-56
2022/09/06 12:19:02;;;;;;;;;;;;;;;;;;2206470;67;1196;-55
2022/09/06 12:21:44;;;;;;;;;;;;;;;;;;2206910;67;1259;-54
2022/09/06 12:24:37;;;;;;;;;;;;;;;;;;2207306;67;1222;-59
2022/09/06 12:27:14;;;;;;;;;;;;;;;;;;2206546;59;1933;-59
2022/09/06 12:29:53;;;;;;;;;;;;;;;;;;2206803;67;1243;-57
2022/09/06 12:32:28;;;;;;;;;;;;;;;;;;2207413;67;1223;-57
2022/09/06 12:35:04;;;;;;;;;;;;;;;;;;2204908;67;1312;-58
2022/09/06 12:37:51;;;;;;;;;;;;;;;;;;2207595;67;1216;-56
2022/09/06 12:40:26;;;;;;;;;;;;;;;;;;2206984;67;1245;-59
2022/09/06 12:42:59;;;;;;;;;;;;;;;;;;2207927;67;1280;-54
2022/09/06 12:45:33;;;;;;;;;;;;;;;;;;2207247;67;1229;-57
2022/09/06 12:48:07;;;;;;;;;;;;;;;;;;2207594;59;2103;-54
2022/09/06 12:50:41;;;;;;;;;;;;;;;;;;2207254;67;1258;-54
2022/09/06 12:53:25;;;;;;;;;;;;;;;;;;2207566;67;1049;-55
2022/09/06 12:56:06;;;;;;;;;;;;;;;;;;2207419;67;1290;-55
2022/09/06 12:58:40;;;;;;;;;;;;;;;;;;2207688;67;1243;-56
2022/09/06 13:01:16;;;;;;;;;;;;;;;;;;2207590;67;1301;-56
2022/09/06 13:03:56;;;;;;;;;;;;;;;;;;2207988;59;2057;-54
2022/09/06 13:06:29;;;;;;;;;;;;;;;;;;2207704;67;1943;-54
2022/09/06 13:09:06;;;;;;;;;;;;;;;;;;2207902;67;1338;-55
2022/09/06 13:11:40;;;;;;;;;;;;;;;;;;2207836;59;1231;-57
2022/09/06 13:14:15;;;;;;;;;;;;;;;;;;2207912;67;1111;-54
2022/09/06 13:16:49;;;;;;;;;;;;;;;;;;2207871;67;1082;-54
2022/09/06 13:19:31;;;;;;;;;;;;;;;;;;2207821;67;1241;-55
2022/09/06 13:22:06;;;;;;;;;;;;;;;;;;2207692;67;1236;-54
2022/09/06 13:24:44;;;;;;;;;;;;;;;;;;2208017;67;1164;-55
2022/09/06 13:27:25;;;;;;;;;;;;;;;;;;2207390;59;1946;-57
2022/09/06 13:29:59;;;;;;;;;;;;;;;;;;2207378;67;1303;-56
2022/09/06 13:32:32;;;;;;;;;;;;;;;;;;2207159;67;1249;-56
2022/09/06 13:35:06;;;;;;;;;;;;;;;;;;2207681;67;1041;-56
2022/09/06 13:37:40;;;;;;;;;;;;;;;;;;2206707;67;1140;-54
2022/09/06 13:40:27;;;;;;;;;;;;;;;;;;2207159;67;1259;-52
2022/09/06 13:43:04;;;;;;;;;;;;;;;;;;2207510;67;1720;-54
2022/09/06 13:45:37;;;;;;;;;;;;;;;;;;2207161;67;1184;-55
2022/09/06 13:48:10;;;;;;;;;;;;;;;;;;2207656;67;1924;-55
2022/09/06 13:50:44;;;;;;;;;;;;;;;;;;2207531;67;1243;-54
2022/09/06 13:53:20;;;;;;;;;;;;;;;;;;2207360;67;1156;-54
2022/09/06 13:55:53;;;;;;;;;;;;;;;;;;2207721;67;1168;-57
2022/09/06 13:58:30;;;;;;;;;;;;;;;;;;2207891;67;1124;-54
2022/09/06 14:01:03;;;;;;;;;;;;;;;;;;2207162;67;1293;-54
2022/09/06 14:03:37;;;;;;;;;;;;;;;;;;2207467;59;1935;-54
2022/09/06 14:06:11;;;;;;;;;;;;;;;;;;2207423;67;1117;-56
2022/09/06 14:08:44;;;;;;;;;;;;;;;;;;2207234;67;1933;-54
2022/09/06 14:11:17;;;;;;;;;;;;;;;;;;2208682;59;1270;-54
2022/09/06 14:13:53;;;;;;;;;;;;;;;;;;2207381;67;1111;-55
2022/09/06 14:16:27;;;;;;;;;;;;;;;;;;2207474;67;1189;-54
2022/09/06 14:19:00;;;;;;;;;;;;;;;;;;2207643;67;1289;-56
2022/09/06 14:21:33;;;;;;;;;;;;;;;;;;2207914;67;1223;-54
2022/09/06 14:24:07;;;;;;;;;;;;;;;;;;2207591;67;1166;-57
2022/09/06 14:26:40;;;;;;;;;;;;;;;;;;2206697;67;1555;-55
2022/09/06 14:29:16;;;;;;;;;;;;;;;;;;2207416;59;1940;-54
2022/09/06 14:31:49;;;;;;;;;;;;;;;;;;2206913;67;1764;-61
2022/09/06 14:34:24;;;;;;;;;;;;;;;;;;2207301;67;1260;-55
2022/09/06 14:36:57;;;;;;;;;;;;;;;;;;2207326;59;1292;-54
2022/09/06 14:39:30;;;;;;;;;;;;;;;;;;2206871;59;1259;-55
2022/09/06 14:42:04;;;;;;;;;;;;;;;;;;2206559;67;1197;-56
2022/09/06 14:44:39;;;;;;;;;;;;;;;;;;2207215;67;1222;-54
2022/09/06 14:47:13;;;;;;;;;;;;;;;;;;2206876;59;1984;-55
2022/09/06 14:49:46;;;;;;;;;;;;;;;;;;2207273;67;1294;-54
2022/09/06 14:52:19;;;;;;;;;;;;;;;;;;2207053;67;1187;-55
2022/09/06 14:54:52;;;;;;;;;;;;;;;;;;2207719;59;1124;-59
2022/09/06 14:57:26;;;;;;;;;;;;;;;;;;2207675;67;980;-55
2022/09/06 15:00:04;;;;;;;;;;;;;;;;;;2207954;67;1287;-54
2022/09/06 15:02:38;;;;;;;;;;;;;;;;;;2207610;59;1773;-54
2022/09/06 15:05:11;;;;;;;;;;;;;;;;;;2208042;59;2691;-54
2022/09/06 15:07:45;;;;;;;;;;;;;;;;;;2207367;67;1937;-56
2022/09/06 15:10:19;;;;;;;;;;;;;;;;;;2207753;67;1213;-56
2022/09/06 15:12:53;;;;;;;;;;;;;;;;;;2207009;59;1272;-54
2022/09/06 15:15:28;;;;;;;;;;;;;;;;;;2207803;67;1243;-54
2022/09/06 15:18:02;;;;;;;;;;;;;;;;;;2207438;67;1266;-55
2022/09/06 15:20:35;;;;;;;;;;;;;;;;;;2207456;67;1248;-55
2022/09/06 15:23:08;;;;;;;;;;;;;;;;;;2207693;67;1444;-56
2022/09/06 15:25:46;;;;;;;;;;;;;;;;;;2207588;67;1134;-53
2022/09/06 15:28:20;;;;;;;;;;;;;;;;;;2206744;59;1929;-61
2022/09/06 15:30:56;;;;;;;;;;;;;;;;;;2207127;67;1218;-54
2022/09/06 15:33:30;;;;;;;;;;;;;;;;;;2206557;67;1089;-55
2022/09/06 15:36:05;;;;;;;;;;;;;;;;;;2207000;59;1289;-56
2022/09/06 15:38:39;;;;;;;;;;;;;;;;;;2206743;67;1106;-55
2022/09/06 15:41:13;;;;;;;;;;;;;;;;;;2206682;67;1296;-56
2022/09/06 15:43:47;;;;;;;;;;;;;;;;;;2207161;67;1171;-54
2022/09/06 15:46:41;;;;;;;;;;;;;;;;;;2206707;59;1291;-55
2022/09/06 15:49:16;;;;;;;;;;;;;;;;;;2206987;67;1914;-54
2022/09/06 15:51:49;;;;;;;;;;;;;;;;;;2206263;67;1209;-54
2022/09/06 15:55:54;;;;;;;;;;;;;;;;;;2207067;59;1259;-55
2022/09/06 15:57:17;;;;;;;;;;;;;;;;;;2207244;67;1995;-55
2022/09/06 15:59:50;;;;;;;;;;;;;;;;;;2206806;67;1189;-55
2022/09/06 16:02:26;;;;;;;;;;;;;;;;;;2207173;59;1670;-56
2022/09/06 16:04:59;;;;;;;;;;;;;;;;;;2206499;59;1386;-55
2022/09/06 16:07:32;;;;;;;;;;;;;;;;;;2206910;67;1987;-54
2022/09/06 16:10:05;;;;;;;;;;;;;;;;;;2206934;67;1255;-55
2022/09/06 16:12:39;;;;;;;;;;;;;;;;;;2206733;59;1265;-55
2022/09/06 16:15:12;;;;;;;;;;;;;;;;;;2207404;67;1107;-55
2022/09/06 16:17:48;;;;;;;;;;;;;;;;;;2206959;67;1229;-54
2022/09/06 16:20:22;;;;;;;;;;;;;;;;;;2207333;67;1247;-54
2022/09/06 16:22:55;;;;;;;;;;;;;;;;;;2207228;67;1105;-56
2022/09/06 16:25:30;;;;;;;;;;;;;;;;;;2207067;67;1299;-54
2022/09/06 16:28:03;;;;;;;;;;;;;;;;;;2206250;59;1940;-54
2022/09/06 16:30:36;;;;;;;;;;;;;;;;;;2206336;67;1210;-56
2022/09/06 16:33:12;;;;;;;;;;;;;;;;;;2206669;59;1023;-55
2022/09/06 16:35:46;;;;;;;;;;;;;;;;;;2206515;67;1269;-54
2022/09/06 16:38:20;;;;;;;;;;;;;;;;;;2206526;67;1181;-55
2022/09/06 16:40:53;;;;;;;;;;;;;;;;;;2206347;67;1247;-56
2022/09/06 16:43:26;;;;;;;;;;;;;;;;;;2206592;67;1140;-55
2022/09/06 16:46:00;;;;;;;;;;;;;;;;;;2206262;59;1273;-56
2022/09/06 16:48:36;;;;;;;;;;;;;;;;;;2206370;67;1933;-55
2022/09/06 16:51:10;;;;;;;;;;;;;;;;;;2206523;67;1258;-55
2022/09/06 16:53:44;;;;;;;;;;;;;;;;;;2206180;67;1145;-56
2022/09/06 16:56:17;;;;;;;;;;;;;;;;;;2207297;67;1187;-53
2022/09/06 16:58:51;;;;;;;;;;;;;;;;;;2207821;67;1099;-53
2022/09/06 17:01:25;;;;;;;;;;;;;;;;;;2207964;59;1761;-54
2022/09/06 17:04:01;;;;;;;;;;;;;;;;;;2208748;59;1387;-54
2022/09/06 17:06:42;;;;;;;;;;;;;;;;;;2208098;67;1009;-54
2022/09/06 17:09:17;;;;;;;;;;;;;;;;;;2206742;67;1934;-56
2022/09/06 17:11:51;;;;;;;;;;;;;;;;;;2206990;59;1272;-54
2022/09/06 17:14:24;;;;;;;;;;;;;;;;;;2206698;67;1311;-54
2022/09/06 17:17:03;;;;;;;;;;;;;;;;;;2207560;67;1198;-57
2022/09/06 17:19:40;;;;;;;;;;;;;;;;;;2207156;67;1042;-54
2022/09/06 17:22:13;;;;;;;;;;;;;;;;;;2207406;67;1227;-54
2022/09/06 17:24:46;;;;;;;;;;;;;;;;;;2207782;67;1093;-54
2022/09/06 17:27:19;;;;;;;;;;;;;;;;;;2206677;59;1411;-55
2022/09/06 17:29:53;;;;;;;;;;;;;;;;;;2207236;67;1925;-54
2022/09/06 17:32:26;;;;;;;;;;;;;;;;;;2206835;67;1223;-56
2022/09/06 17:35:02;;;;;;;;;;;;;;;;;;2207071;67;1157;-55
2022/09/06 17:37:35;;;;;;;;;;;;;;;;;;2207333;59;1286;-54
2022/09/06 17:40:09;;;;;;;;;;;;;;;;;;2206840;67;1262;-57
2022/09/06 17:42:42;;;;;;;;;;;;;;;;;;2207677;67;1062;-55
2022/09/06 17:45:15;;;;;;;;;;;;;;;;;;2206964;60;1216;-55
2022/09/06 17:47:49;;;;;;;;;;;;;;;;;;2207067;59;1080;-56
2022/09/06 17:50:24;;;;;;;;;;;;;;;;;;2206693;67;2261;-57
2022/09/06 17:52:58;;;;;;;;;;;;;;;;;;2206792;67;1200;-57
2022/09/06 17:55:31;;;;;;;;;;;;;;;;;;2206994;67;1177;-58
2022/09/06 17:58:04;;;;;;;;;;;;;;;;;;2207380;67;1227;-57
2022/09/06 18:00:39;;;;;;;;;;;;;;;;;;2207435;67;1214;-54
2022/09/06 18:03:12;;;;;;;;;;;;;;;;;;2207071;59;1745;-56
2022/09/06 18:05:48;;;;;;;;;;;;;;;;;;2207595;67;1278;-56
2022/09/06 18:08:22;;;;;;;;;;;;;;;;;;2206807;67;1925;-59
2022/09/06 18:10:55;;;;;;;;;;;;;;;;;;2207014;59;1252;-57
2022/09/06 18:13:28;;;;;;;;;;;;;;;;;;2207297;67;1211;-58
2022/09/06 18:16:02;;;;;;;;;;;;;;;;;;2206941;67;1231;-57
2022/09/06 18:18:36;;;;;;;;;;;;;;;;;;2208120;67;1314;-56
2022/09/06 18:21:12;;;;;;;;;;;;;;;;;;2207781;67;1202;-55
2022/09/06 18:23:45;;;;;;;;;;;;;;;;;;2211913;67;1077;-55
2022/09/06 18:26:19;;;;;;;;;;;;;;;;;;2211574;59;1700;-54
2022/09/06 18:28:52;;;;;;;;;;;;;;;;;;2207159;59;1927;-57
2022/09/06 18:31:26;;;;;;;;;;;;;;;;;;2207233;67;1290;-54
2022/09/06 18:33:59;;;;;;;;;;;;;;;;;;2207138;67;1285;-55
2022/09/06 18:36:35;;;;;;;;;;;;;;;;;;2207283;59;1286;-55
2022/09/06 18:39:10;;;;;;;;;;;;;;;;;;2207215;67;1134;-56
2022/09/06 18:44:32;;;;;;;;;;;;;;;;;;2207317;67;1157;-55
2022/09/06 18:47:07;;;;;;;;;;;;;;;;;;2207438;59;1605;-54
2022/09/06 18:49:40;;;;;;;;;;;;;;;;;;2207463;67;1955;-55
2022/09/06 18:52:18;;;;;;;;;;;;;;;;;;2207856;67;1034;-54
2022/09/06 18:54:51;;;;;;;;;;;;;;;;;;2207397;67;1127;-55
2022/09/06 18:57:24;;;;;;;;;;;;;;;;;;2207423;67;1072;-54
2022/09/06 18:59:57;;;;;;;;;;;;;;;;;;2206978;67;1265;-55
2022/09/06 19:02:31;;;;;;;;;;;;;;;;;;2206965;59;1807;-54
2022/09/06 19:05:04;;;;;;;;;;;;;;;;;;2206978;59;1327;-54
2022/09/06 19:07:40;;;;;;;;;;;;;;;;;;2207087;67;1152;-55
2022/09/06 19:10:13;;;;;;;;;;;;;;;;;;2207091;67;1941;-53
2022/09/06 19:12:46;;;;;;;;;;;;;;;;;;2206673;59;1248;-54
2022/09/06 19:15:19;;;;;;;;;;;;;;;;;;2206869;67;1166;-54